sensor_id;sensor_type;location;lat;lon;timestamp;temperature;humidity
16907;DHT22;8570;52.380;4.654;2022-10-16T00:02:44;14.00;99.90
16907;DHT22;8570;52.380;4.654;2022-10-16T00:07:47;14.00;99.90
16907;DHT22;8570;52.380;4.654;2022-10-16T00:12:49;14.00;99.90
16907;DHT22;8570;52.380;4.654;2022-10-16T00:17:51;14.00;99.90
16907;DHT22;8570;52.380;4.654;2022-10-16T00:22:54;14.00;99.90
16907;DHT22;8570;52.380;4.654;2022-10-16T00:27:56;14.00;99.90
16907;DHT22;8570;52.380;4.654;2022-10-16T00:32:58;14.00;99.90
16907;DHT22;8570;52.380;4.654;2022-10-16T00:38:01;13.90;99.90
16907;DHT22;8570;52.380;4.654;2022-10-16T00:43:08;13.90;99.90
16907;DHT22;8570;52.380;4.654;2022-10-16T00:48:13;13.90;99.90
16907;DHT22;8570;52.380;4.654;2022-10-16T00:53:17;13.90;99.90
16907;DHT22;8570;52.380;4.654;2022-10-16T00:58:19;13.90;99.90
16907;DHT22;8570;52.380;4.654;2022-10-16T01:03:25;13.90;99.90
16907;DHT22;8570;52.380;4.654;2022-10-16T01:08:35;13.90;99.90
16907;DHT22;8570;52.380;4.654;2022-10-16T01:13:42;13.90;99.90
16907;DHT22;8570;52.380;4.654;2022-10-16T01:18:50;14.00;99.90
16907;DHT22;8570;52.380;4.654;2022-10-16T01:24:03;14.00;99.90
16907;DHT22;8570;52.380;4.654;2022-10-16T01:29:16;14.00;99.90
16907;DHT22;8570;52.380;4.654;2022-10-16T01:34:24;14.00;99.90
16907;DHT22;8570;52.380;4.654;2022-10-16T01:39:32;14.00;99.90
16907;DHT22;8570;52.380;4.654;2022-10-16T01:44:37;14.00;99.90
16907;DHT22;8570;52.380;4.654;2022-10-16T01:49:41;14.00;99.90
16907;DHT22;8570;52.380;4.654;2022-10-16T01:54:47;14.00;99.90
16907;DHT22;8570;52.380;4.654;2022-10-16T01:59:53;14.00;99.90
16907;DHT22;8570;52.380;4.654;2022-10-16T02:04:59;14.00;99.90
16907;DHT22;8570;52.380;4.654;2022-10-16T02:10:03;14.00;99.90
16907;DHT22;8570;52.380;4.654;2022-10-16T02:15:08;14.00;99.90
16907;DHT22;8570;52.380;4.654;2022-10-16T02:20:10;14.00;99.90
16907;DHT22;8570;52.380;4.654;2022-10-16T02:25:17;13.90;99.90
16907;DHT22;8570;52.380;4.654;2022-10-16T02:30:25;13.90;99.90
16907;DHT22;8570;52.380;4.654;2022-10-16T02:35:30;13.90;99.90
16907;DHT22;8570;52.380;4.654;2022-10-16T02:40:33;13.80;99.90
16907;DHT22;8570;52.380;4.654;2022-10-16T02:45:36;13.80;99.90
16907;DHT22;8570;52.380;4.654;2022-10-16T02:50:38;13.70;99.90
16907;DHT22;8570;52.380;4.654;2022-10-16T02:55:40;13.70;99.90
16907;DHT22;8570;52.380;4.654;2022-10-16T03:00:43;13.60;99.90
16907;DHT22;8570;52.380;4.654;2022-10-16T03:05:46;13.60;99.90
16907;DHT22;8570;52.380;4.654;2022-10-16T03:10:48;13.60;99.90
16907;DHT22;8570;52.380;4.654;2022-10-16T03:15:51;13.50;99.90
16907;DHT22;8570;52.380;4.654;2022-10-16T03:20:53;13.50;99.90
16907;DHT22;8570;52.380;4.654;2022-10-16T03:25:54;13.50;99.90
16907;DHT22;8570;52.380;4.654;2022-10-16T03:30:58;13.50;99.90
16907;DHT22;8570;52.380;4.654;2022-10-16T03:36:00;13.50;99.90
16907;DHT22;8570;52.380;4.654;2022-10-16T03:41:01;13.50;99.90
16907;DHT22;8570;52.380;4.654;2022-10-16T03:46:05;13.50;99.90
16907;DHT22;8570;52.380;4.654;2022-10-16T03:51:08;13.50;99.90
16907;DHT22;8570;52.380;4.654;2022-10-16T03:56:09;13.50;99.90
16907;DHT22;8570;52.380;4.654;2022-10-16T04:01:13;13.50;99.90
16907;DHT22;8570;52.380;4.654;2022-10-16T04:06:15;13.50;99.90
16907;DHT22;8570;52.380;4.654;2022-10-16T04:11:16;13.50;99.90
16907;DHT22;8570;52.380;4.654;2022-10-16T04:16:20;13.60;99.90
16907;DHT22;8570;52.380;4.654;2022-10-16T04:21:21;13.60;99.90
16907;DHT22;8570;52.380;4.654;2022-10-16T04:26:23;13.60;99.90
16907;DHT22;8570;52.380;4.654;2022-10-16T04:31:27;13.60;99.90
16907;DHT22;8570;52.380;4.654;2022-10-16T04:36:29;13.60;99.90
16907;DHT22;8570;52.380;4.654;2022-10-16T04:41:31;13.60;99.90
16907;DHT22;8570;52.380;4.654;2022-10-16T04:46:34;13.60;99.90
16907;DHT22;8570;52.380;4.654;2022-10-16T04:51:36;13.60;99.90
16907;DHT22;8570;52.380;4.654;2022-10-16T04:56:38;13.60;99.90
16907;DHT22;8570;52.380;4.654;2022-10-16T05:01:48;13.60;99.90
16907;DHT22;8570;52.380;4.654;2022-10-16T05:06:50;13.60;99.90
16907;DHT22;8570;52.380;4.654;2022-10-16T05:11:52;13.60;99.90
16907;DHT22;8570;52.380;4.654;2022-10-16T05:16:55;13.60;99.90
16907;DHT22;8570;52.380;4.654;2022-10-16T05:21:57;13.60;99.90
16907;DHT22;8570;52.380;4.654;2022-10-16T05:26:59;13.60;99.90
16907;DHT22;8570;52.380;4.654;2022-10-16T05:32:03;13.50;99.90
16907;DHT22;8570;52.380;4.654;2022-10-16T05:37:04;13.50;99.90
16907;DHT22;8570;52.380;4.654;2022-10-16T05:42:06;13.50;99.90
16907;DHT22;8570;52.380;4.654;2022-10-16T05:47:10;13.40;99.90
16907;DHT22;8570;52.380;4.654;2022-10-16T05:52:14;13.40;99.90
16907;DHT22;8570;52.380;4.654;2022-10-16T05:57:16;13.40;99.90
16907;DHT22;8570;52.380;4.654;2022-10-16T06:02:20;13.30;99.90
16907;DHT22;8570;52.380;4.654;2022-10-16T06:07:23;13.30;99.90
16907;DHT22;8570;52.380;4.654;2022-10-16T06:12:24;13.30;99.90
16907;DHT22;8570;52.380;4.654;2022-10-16T06:17:29;13.30;99.90
16907;DHT22;8570;52.380;4.654;2022-10-16T06:22:31;13.20;99.90
16907;DHT22;8570;52.380;4.654;2022-10-16T06:27:33;13.20;99.90
16907;DHT22;8570;52.380;4.654;2022-10-16T06:32:36;13.20;99.90
16907;DHT22;8570;52.380;4.654;2022-10-16T06:37:38;13.20;99.90
16907;DHT22;8570;52.380;4.654;2022-10-16T06:42:40;13.20;99.90
16907;DHT22;8570;52.380;4.654;2022-10-16T06:47:43;13.20;99.90
16907;DHT22;8570;52.380;4.654;2022-10-16T06:52:45;13.20;99.90
16907;DHT22;8570;52.380;4.654;2022-10-16T06:57:47;13.20;99.90
16907;DHT22;8570;52.380;4.654;2022-10-16T07:02:51;13.20;99.90
16907;DHT22;8570;52.380;4.654;2022-10-16T07:07:53;13.20;99.90
16907;DHT22;8570;52.380;4.654;2022-10-16T07:12:55;13.10;99.90
16907;DHT22;8570;52.380;4.654;2022-10-16T07:17:58;13.20;99.90
16907;DHT22;8570;52.380;4.654;2022-10-16T07:23:00;13.20;99.90
16907;DHT22;8570;52.380;4.654;2022-10-16T07:28:02;13.20;99.90
16907;DHT22;8570;52.380;4.654;2022-10-16T07:33:05;13.30;99.90
16907;DHT22;8570;52.380;4.654;2022-10-16T07:38:07;13.30;99.90
16907;DHT22;8570;52.380;4.654;2022-10-16T07:43:09;13.40;99.90
16907;DHT22;8570;52.380;4.654;2022-10-16T07:48:12;13.50;99.90
16907;DHT22;8570;52.380;4.654;2022-10-16T07:53:15;13.60;99.90
16907;DHT22;8570;52.380;4.654;2022-10-16T07:58:17;13.60;99.90
16907;DHT22;8570;52.380;4.654;2022-10-16T08:03:20;13.70;99.90
16907;DHT22;8570;52.380;4.654;2022-10-16T08:08:22;13.80;99.90
16907;DHT22;8570;52.380;4.654;2022-10-16T08:13:23;13.90;99.90
16907;DHT22;8570;52.380;4.654;2022-10-16T08:18:28;14.00;99.90
16907;DHT22;8570;52.380;4.654;2022-10-16T08:23:30;14.10;99.90
16907;DHT22;8570;52.380;4.654;2022-10-16T08:28:32;14.20;99.90
16907;DHT22;8570;52.380;4.654;2022-10-16T08:33:36;14.30;99.90
16907;DHT22;8570;52.380;4.654;2022-10-16T08:38:38;14.50;99.90
16907;DHT22;8570;52.380;4.654;2022-10-16T08:43:51;14.60;99.90
16907;DHT22;8570;52.380;4.654;2022-10-16T08:48:59;14.70;99.90
16907;DHT22;8570;52.380;4.654;2022-10-16T08:54:03;14.90;99.90
16907;DHT22;8570;52.380;4.654;2022-10-16T08:59:10;15.00;99.90
16907;DHT22;8570;52.380;4.654;2022-10-16T09:04:44;15.10;99.90
16907;DHT22;8570;52.380;4.654;2022-10-16T09:09:58;15.20;99.90
16907;DHT22;8570;52.380;4.654;2022-10-16T09:15:10;15.20;99.90
16907;DHT22;8570;52.380;4.654;2022-10-16T09:20:30;15.40;99.90
16907;DHT22;8570;52.380;4.654;2022-10-16T09:25:33;15.70;99.90
16907;DHT22;8570;52.380;4.654;2022-10-16T09:30:37;16.00;99.90
16907;DHT22;8570;52.380;4.654;2022-10-16T09:35:45;16.20;99.90
16907;DHT22;8570;52.380;4.654;2022-10-16T09:40:47;16.40;99.90
16907;DHT22;8570;52.380;4.654;2022-10-16T09:46:00;16.80;99.90
16907;DHT22;8570;52.380;4.654;2022-10-16T09:51:05;17.10;99.90
16907;DHT22;8570;52.380;4.654;2022-10-16T09:56:09;17.30;99.90
16907;DHT22;8570;52.380;4.654;2022-10-16T10:01:13;17.40;99.90
16907;DHT22;8570;52.380;4.654;2022-10-16T10:06:21;17.50;99.90
16907;DHT22;8570;52.380;4.654;2022-10-16T10:11:47;17.70;99.90
16907;DHT22;8570;52.380;4.654;2022-10-16T10:16:51;17.90;99.90
16907;DHT22;8570;52.380;4.654;2022-10-16T10:21:54;18.00;99.90
16907;DHT22;8570;52.380;4.654;2022-10-16T10:27:03;17.90;99.90
16907;DHT22;8570;52.380;4.654;2022-10-16T10:32:19;17.80;99.90
16907;DHT22;8570;52.380;4.654;2022-10-16T10:37:41;17.80;99.90
16907;DHT22;8570;52.380;4.654;2022-10-16T10:42:52;17.70;99.90
16907;DHT22;8570;52.380;4.654;2022-10-16T10:48:05;17.80;99.90
16907;DHT22;8570;52.380;4.654;2022-10-16T10:53:24;17.90;99.90
16907;DHT22;8570;52.380;4.654;2022-10-16T10:58:49;18.10;99.90
16907;DHT22;8570;52.380;4.654;2022-10-16T11:04:05;18.20;99.90
16907;DHT22;8570;52.380;4.654;2022-10-16T11:09:19;18.30;99.90
16907;DHT22;8570;52.380;4.654;2022-10-16T11:14:28;18.30;99.90
16907;DHT22;8570;52.380;4.654;2022-10-16T11:19:39;18.20;99.90
16907;DHT22;8570;52.380;4.654;2022-10-16T11:24:49;18.20;99.90
16907;DHT22;8570;52.380;4.654;2022-10-16T11:29:59;18.30;99.90
16907;DHT22;8570;52.380;4.654;2022-10-16T11:35:08;18.40;99.90
16907;DHT22;8570;52.380;4.654;2022-10-16T11:40:25;18.70;99.90
16907;DHT22;8570;52.380;4.654;2022-10-16T11:45:34;18.80;99.90
16907;DHT22;8570;52.380;4.654;2022-10-16T11:50:42;18.90;99.90
16907;DHT22;8570;52.380;4.654;2022-10-16T11:55:46;18.90;99.90
16907;DHT22;8570;52.380;4.654;2022-10-16T12:00:55;18.90;99.90
16907;DHT22;8570;52.380;4.654;2022-10-16T12:06:11;18.80;99.90
16907;DHT22;8570;52.380;4.654;2022-10-16T12:19:32;19.20;99.70
16907;DHT22;8570;52.380;4.654;2022-10-16T12:24:36;19.20;99.90
16907;DHT22;8570;52.380;4.654;2022-10-16T12:34:44;19.00;99.90
16907;DHT22;8570;52.380;4.654;2022-10-16T12:39:47;19.00;99.90
16907;DHT22;8570;52.380;4.654;2022-10-16T12:54:57;18.80;99.90
16907;DHT22;8570;52.380;4.654;2022-10-16T13:00:07;18.90;99.10
16907;DHT22;8570;52.380;4.654;2022-10-16T13:05:30;19.00;98.30
16907;DHT22;8570;52.380;4.654;2022-10-16T13:10:41;18.90;98.00
16907;DHT22;8570;52.380;4.654;2022-10-16T13:15:59;18.80;98.10
16907;DHT22;8570;52.380;4.654;2022-10-16T13:21:14;18.60;97.50
16907;DHT22;8570;52.380;4.654;2022-10-16T13:26:26;18.40;97.70
16907;DHT22;8570;52.380;4.654;2022-10-16T13:31:32;18.20;97.70
16907;DHT22;8570;52.380;4.654;2022-10-16T13:36:43;17.90;97.70
16907;DHT22;8570;52.380;4.654;2022-10-16T13:41:46;17.70;98.20
16907;DHT22;8570;52.380;4.654;2022-10-16T13:46:58;17.50;99.20
16907;DHT22;8570;52.380;4.654;2022-10-16T13:52:01;17.40;99.90
16907;DHT22;8570;52.380;4.654;2022-10-16T13:57:05;17.40;99.90
16907;DHT22;8570;52.380;4.654;2022-10-16T14:02:17;17.30;99.90
16907;DHT22;8570;52.380;4.654;2022-10-16T14:07:23;17.30;99.90
16907;DHT22;8570;52.380;4.654;2022-10-16T14:12:26;17.30;99.90
16907;DHT22;8570;52.380;4.654;2022-10-16T14:17:30;17.30;99.90
16907;DHT22;8570;52.380;4.654;2022-10-16T14:22:36;17.30;99.90
16907;DHT22;8570;52.380;4.654;2022-10-16T14:27:38;17.30;99.90
16907;DHT22;8570;52.380;4.654;2022-10-16T14:32:41;17.30;99.90
16907;DHT22;8570;52.380;4.654;2022-10-16T14:37:45;17.30;99.90
16907;DHT22;8570;52.380;4.654;2022-10-16T14:42:46;17.30;99.90
16907;DHT22;8570;52.380;4.654;2022-10-16T14:52:53;18.20;99.90
16907;DHT22;8570;52.380;4.654;2022-10-16T14:57:55;17.10;99.90
16907;DHT22;8570;52.380;4.654;2022-10-16T15:02:57;17.10;99.90
16907;DHT22;8570;52.380;4.654;2022-10-16T15:08:00;17.10;99.90
16907;DHT22;8570;52.380;4.654;2022-10-16T15:13:02;17.10;99.90
16907;DHT22;8570;52.380;4.654;2022-10-16T15:18:05;17.10;99.90
16907;DHT22;8570;52.380;4.654;2022-10-16T15:23:13;17.00;99.90
16907;DHT22;8570;52.380;4.654;2022-10-16T15:28:16;17.00;99.90
16907;DHT22;8570;52.380;4.654;2022-10-16T15:33:20;16.90;99.90
16907;DHT22;8570;52.380;4.654;2022-10-16T15:38:24;16.80;99.90
16907;DHT22;8570;52.380;4.654;2022-10-16T15:43:27;16.80;99.90
16907;DHT22;8570;52.380;4.654;2022-10-16T15:48:30;16.70;99.90
16907;DHT22;8570;52.380;4.654;2022-10-16T15:53:33;16.70;99.90
16907;DHT22;8570;52.380;4.654;2022-10-16T15:58:35;16.60;99.90
16907;DHT22;8570;52.380;4.654;2022-10-16T16:03:38;16.60;99.90
16907;DHT22;8570;52.380;4.654;2022-10-16T16:08:42;16.60;99.90
16907;DHT22;8570;52.380;4.654;2022-10-16T16:13:44;16.60;99.90
16907;DHT22;8570;52.380;4.654;2022-10-16T16:18:46;16.60;99.90
16907;DHT22;8570;52.380;4.654;2022-10-16T16:23:51;16.60;99.90
16907;DHT22;8570;52.380;4.654;2022-10-16T16:28:53;16.70;99.90
16907;DHT22;8570;52.380;4.654;2022-10-16T16:33:57;16.80;99.90
16907;DHT22;8570;52.380;4.654;2022-10-16T16:39:00;16.70;99.90
16907;DHT22;8570;52.380;4.654;2022-10-16T16:44:04;16.60;99.90
16907;DHT22;8570;52.380;4.654;2022-10-16T16:49:09;16.40;99.90
16907;DHT22;8570;52.380;4.654;2022-10-16T16:54:13;16.30;99.90
16907;DHT22;8570;52.380;4.654;2022-10-16T16:59:17;16.30;99.90
16907;DHT22;8570;52.380;4.654;2022-10-16T17:04:20;16.20;99.90
16907;DHT22;8570;52.380;4.654;2022-10-16T17:09:23;16.10;99.90
16907;DHT22;8570;52.380;4.654;2022-10-16T17:14:25;16.00;99.90
16907;DHT22;8570;52.380;4.654;2022-10-16T17:19:27;16.00;99.90
16907;DHT22;8570;52.380;4.654;2022-10-16T17:24:30;16.00;99.90
16907;DHT22;8570;52.380;4.654;2022-10-16T17:29:32;15.90;99.90
16907;DHT22;8570;52.380;4.654;2022-10-16T17:34:33;15.80;99.90
16907;DHT22;8570;52.380;4.654;2022-10-16T17:39:37;15.80;99.90
16907;DHT22;8570;52.380;4.654;2022-10-16T17:44:39;15.70;99.90
16907;DHT22;8570;52.380;4.654;2022-10-16T17:49:40;15.70;99.90
16907;DHT22;8570;52.380;4.654;2022-10-16T17:54:44;15.70;99.90
16907;DHT22;8570;52.380;4.654;2022-10-16T17:59:46;15.60;99.90
16907;DHT22;8570;52.380;4.654;2022-10-16T18:04:49;15.50;99.90
16907;DHT22;8570;52.380;4.654;2022-10-16T18:09:52;15.50;99.90
16907;DHT22;8570;52.380;4.654;2022-10-16T18:14:54;15.50;99.90
16907;DHT22;8570;52.380;4.654;2022-10-16T18:19:58;15.40;99.90
16907;DHT22;8570;52.380;4.654;2022-10-16T18:25:01;15.40;99.90
16907;DHT22;8570;52.380;4.654;2022-10-16T18:30:05;15.40;99.90
16907;DHT22;8570;52.380;4.654;2022-10-16T18:35:07;15.30;99.90
16907;DHT22;8570;52.380;4.654;2022-10-16T18:40:11;15.30;99.90
16907;DHT22;8570;52.380;4.654;2022-10-16T18:45:13;15.30;99.90
16907;DHT22;8570;52.380;4.654;2022-10-16T18:50:15;15.30;99.90
16907;DHT22;8570;52.380;4.654;2022-10-16T18:55:18;15.20;99.90
16907;DHT22;8570;52.380;4.654;2022-10-16T19:00:20;15.20;99.90
16907;DHT22;8570;52.380;4.654;2022-10-16T19:05:22;15.20;99.90
16907;DHT22;8570;52.380;4.654;2022-10-16T19:10:25;15.20;99.90
16907;DHT22;8570;52.380;4.654;2022-10-16T19:15:27;15.20;99.90
16907;DHT22;8570;52.380;4.654;2022-10-16T19:20:29;15.10;99.90
16907;DHT22;8570;52.380;4.654;2022-10-16T19:25:35;15.10;99.90
16907;DHT22;8570;52.380;4.654;2022-10-16T19:30:38;15.10;99.90
16907;DHT22;8570;52.380;4.654;2022-10-16T19:35:40;15.10;99.90
16907;DHT22;8570;52.380;4.654;2022-10-16T19:40:44;15.00;99.90
16907;DHT22;8570;52.380;4.654;2022-10-16T19:45:46;15.00;99.90
16907;DHT22;8570;52.380;4.654;2022-10-16T19:50:47;15.00;99.90
16907;DHT22;8570;52.380;4.654;2022-10-16T19:55:51;15.00;99.90
16907;DHT22;8570;52.380;4.654;2022-10-16T20:00:53;15.00;99.90
16907;DHT22;8570;52.380;4.654;2022-10-16T20:05:56;14.90;99.90
16907;DHT22;8570;52.380;4.654;2022-10-16T20:11:00;14.90;99.90
16907;DHT22;8570;52.380;4.654;2022-10-16T20:16:02;14.90;99.90
16907;DHT22;8570;52.380;4.654;2022-10-16T20:21:08;14.90;99.90
16907;DHT22;8570;52.380;4.654;2022-10-16T20:26:15;14.90;99.90
16907;DHT22;8570;52.380;4.654;2022-10-16T20:31:19;14.90;99.90
16907;DHT22;8570;52.380;4.654;2022-10-16T20:36:24;14.90;99.90
16907;DHT22;8570;52.380;4.654;2022-10-16T20:41:27;14.90;99.90
16907;DHT22;8570;52.380;4.654;2022-10-16T20:46:29;14.90;99.90
16907;DHT22;8570;52.380;4.654;2022-10-16T20:51:31;14.90;99.90
16907;DHT22;8570;52.380;4.654;2022-10-16T20:56:36;14.90;99.90
16907;DHT22;8570;52.380;4.654;2022-10-16T21:01:38;14.80;99.90
16907;DHT22;8570;52.380;4.654;2022-10-16T21:06:41;14.80;99.90
16907;DHT22;8570;52.380;4.654;2022-10-16T21:11:46;14.80;99.90
16907;DHT22;8570;52.380;4.654;2022-10-16T21:16:48;14.80;99.90
16907;DHT22;8570;52.380;4.654;2022-10-16T21:21:50;14.80;99.90
16907;DHT22;8570;52.380;4.654;2022-10-16T21:26:53;14.80;99.90
16907;DHT22;8570;52.380;4.654;2022-10-16T21:31:55;14.70;99.90
16907;DHT22;8570;52.380;4.654;2022-10-16T21:36:57;14.70;99.90
16907;DHT22;8570;52.380;4.654;2022-10-16T21:42:00;14.70;99.90
16907;DHT22;8570;52.380;4.654;2022-10-16T21:47:02;14.70;99.90
16907;DHT22;8570;52.380;4.654;2022-10-16T21:52:04;14.70;99.90
16907;DHT22;8570;52.380;4.654;2022-10-16T21:57:07;14.70;99.90
16907;DHT22;8570;52.380;4.654;2022-10-16T22:02:09;14.70;99.90
16907;DHT22;8570;52.380;4.654;2022-10-16T22:07:11;14.70;99.90
16907;DHT22;8570;52.380;4.654;2022-10-16T22:12:14;14.60;99.90
16907;DHT22;8570;52.380;4.654;2022-10-16T22:17:19;14.60;99.90
16907;DHT22;8570;52.380;4.654;2022-10-16T22:22:21;14.60;99.90
16907;DHT22;8570;52.380;4.654;2022-10-16T22:27:24;14.60;99.90
16907;DHT22;8570;52.380;4.654;2022-10-16T22:32:26;14.60;99.90
16907;DHT22;8570;52.380;4.654;2022-10-16T22:37:28;14.60;99.90
16907;DHT22;8570;52.380;4.654;2022-10-16T22:42:31;14.60;99.90
16907;DHT22;8570;52.380;4.654;2022-10-16T22:47:33;14.60;99.90
16907;DHT22;8570;52.380;4.654;2022-10-16T22:52:35;14.60;99.90
16907;DHT22;8570;52.380;4.654;2022-10-16T22:57:40;14.60;99.90
16907;DHT22;8570;52.380;4.654;2022-10-16T23:02:42;14.60;99.90
16907;DHT22;8570;52.380;4.654;2022-10-16T23:07:44;14.60;99.90
16907;DHT22;8570;52.380;4.654;2022-10-16T23:12:47;14.50;99.90
16907;DHT22;8570;52.380;4.654;2022-10-16T23:17:49;14.50;99.90
16907;DHT22;8570;52.380;4.654;2022-10-16T23:22:51;14.50;99.90
16907;DHT22;8570;52.380;4.654;2022-10-16T23:27:54;14.50;99.90
16907;DHT22;8570;52.380;4.654;2022-10-16T23:32:56;14.50;99.90
16907;DHT22;8570;52.380;4.654;2022-10-16T23:37:58;14.50;99.90
16907;DHT22;8570;52.380;4.654;2022-10-16T23:43:04;14.50;99.90
16907;DHT22;8570;52.380;4.654;2022-10-16T23:48:06;14.50;99.90
16907;DHT22;8570;52.380;4.654;2022-10-16T23:53:08;14.50;99.90
16907;DHT22;8570;52.380;4.654;2022-10-16T23:58:11;14.50;99.90
